createdAt,value
2019-04-01T00:00:00.729Z,7.01
2019-04-01T00:01:00.700Z,7.16
2019-04-01T00:02:00.673Z,6.96
2019-04-01T00:03:00.650Z,7.07
2019-04-01T00:04:00.631Z,6.99
2019-04-01T00:05:00.615Z,7.00
2019-04-01T00:06:00.586Z,6.96
2019-04-01T00:07:00.570Z,6.99
2019-04-01T00:08:00.543Z,6.97
2019-04-01T00:09:00.526Z,6.79
2019-04-01T00:10:00.508Z,6.55
2019-04-01T00:11:00.482Z,6.67
2019-04-01T00:12:00.460Z,6.75
2019-04-01T00:13:00.438Z,6.55
2019-04-01T00:14:00.416Z,6.64
2019-04-01T00:15:00.396Z,6.63
2019-04-01T00:16:00.377Z,6.47
2019-04-01T00:17:00.352Z,6.55
2019-04-01T00:18:00.332Z,6.61
2019-04-01T00:19:03.447Z,6.63
2019-04-01T00:20:00.367Z,6.63
2019-04-01T00:21:00.307Z,6.64
2019-04-01T00:22:00.243Z,6.50
2019-04-01T00:23:00.367Z,6.42
2019-04-01T00:24:00.199Z,6.50
2019-04-01T00:25:00.356Z,6.52
2019-04-01T00:26:00.156Z,6.57
2019-04-01T00:27:00.133Z,6.55
2019-04-01T00:28:00.112Z,6.40
2019-04-01T00:29:00.089Z,6.34
2019-04-01T00:30:00.109Z,6.40
2019-04-01T00:31:00.047Z,6.35
2019-04-01T00:32:00.025Z,6.40
2019-04-01T00:33:00.004Z,6.53
2019-04-01T00:33:59.982Z,6.56
2019-04-01T00:34:59.983Z,6.43
2019-04-01T00:35:59.940Z,6.35
2019-04-01T00:36:59.918Z,6.42
2019-04-01T00:37:59.896Z,6.40
2019-04-01T00:38:59.881Z,6.45
2019-04-01T00:39:59.853Z,6.43
2019-04-01T00:40:59.829Z,6.42
2019-04-01T00:41:59.806Z,6.56
2019-04-01T00:42:59.786Z,6.57
2019-04-01T00:43:59.764Z,6.61
2019-04-01T00:44:59.742Z,6.64
2019-04-01T00:45:59.722Z,6.65
2019-04-01T00:46:59.699Z,6.70
2019-04-01T00:47:59.677Z,6.63
2019-04-01T00:48:59.655Z,6.63
2019-04-01T00:49:59.634Z,6.71
2019-04-01T00:50:59.623Z,6.73
2019-04-01T00:51:59.590Z,6.70
2019-04-01T00:52:59.568Z,6.56
2019-04-01T00:53:59.544Z,6.64
2019-04-01T00:54:59.527Z,6.56
2019-04-01T00:55:59.503Z,6.57
2019-04-01T00:56:59.481Z,6.60
2019-04-01T00:57:59.458Z,6.63
2019-04-01T00:58:59.439Z,6.56
2019-04-01T00:59:59.418Z,6.42
2019-04-01T01:00:59.395Z,6.42
2019-04-01T01:01:59.379Z,6.47
2019-04-01T01:02:59.349Z,6.53
2019-04-01T01:03:59.332Z,6.35
2019-04-01T01:04:59.310Z,6.38
2019-04-01T01:05:59.283Z,6.35
2019-04-01T01:06:59.266Z,6.43
2019-04-01T01:07:59.251Z,6.35
2019-04-01T01:08:59.221Z,6.43
2019-04-01T01:09:59.198Z,6.42
2019-04-01T01:10:59.178Z,6.31
2019-04-01T01:11:59.159Z,6.24
2019-04-01T01:12:59.134Z,6.27
2019-04-01T01:13:59.110Z,6.15
2019-04-01T01:14:59.104Z,6.08
2019-04-01T01:15:59.076Z,6.13
2019-04-01T01:16:59.050Z,6.00
2019-04-01T01:17:59.021Z,6.12
2019-04-01T01:18:59.004Z,6.24
2019-04-01T01:19:58.980Z,6.21
2019-04-01T01:20:58.959Z,6.12
2019-04-01T01:21:58.945Z,6.18
2019-04-01T01:22:58.913Z,6.02
2019-04-01T01:23:58.891Z,5.93
2019-04-01T01:24:58.871Z,5.87
2019-04-01T01:25:58.848Z,5.84
2019-04-01T01:26:58.831Z,6.00
2019-04-01T01:27:58.804Z,5.93
2019-04-01T01:28:58.792Z,6.05
2019-04-01T01:29:58.766Z,6.00
2019-04-01T01:30:58.739Z,6.16
2019-04-01T01:31:58.721Z,6.18
2019-04-01T01:32:58.699Z,6.21
2019-04-01T01:33:58.673Z,6.19
2019-04-01T01:34:58.652Z,6.24
2019-04-01T01:35:58.635Z,6.27
2019-04-01T01:36:58.610Z,6.30
2019-04-01T01:37:58.585Z,6.37
2019-04-01T01:38:58.561Z,6.42
2019-04-01T01:39:58.543Z,6.37
2019-04-01T01:40:58.607Z,6.46
2019-04-01T01:41:58.497Z,6.46
2019-04-01T01:42:58.475Z,6.38
2019-04-01T01:43:58.453Z,6.46
2019-04-01T01:44:58.480Z,6.43
2019-04-01T01:45:58.417Z,6.56
2019-04-01T01:46:58.391Z,6.47
2019-04-01T01:47:58.371Z,6.42
2019-04-01T01:48:58.353Z,6.52
2019-04-01T01:49:58.322Z,6.55
2019-04-01T01:50:58.302Z,6.52
2019-04-01T01:51:58.277Z,6.53
2019-04-01T01:52:58.259Z,6.56
2019-04-01T01:53:58.237Z,6.56
2019-04-01T01:54:58.213Z,6.56
2019-04-01T01:55:58.193Z,6.40
2019-04-01T01:56:58.174Z,6.38
2019-04-01T01:57:58.150Z,6.45
2019-04-01T01:58:58.129Z,6.37
2019-04-01T01:59:58.104Z,6.35
2019-04-01T02:00:58.084Z,6.28
2019-04-01T02:01:58.061Z,6.31
2019-04-01T02:02:58.042Z,6.34
2019-04-01T02:03:58.119Z,6.31
2019-04-01T02:04:57.999Z,6.30
2019-04-01T02:05:57.983Z,6.25
2019-04-01T02:06:57.954Z,6.32
2019-04-01T02:07:57.930Z,6.32
2019-04-01T02:08:57.912Z,6.35
2019-04-01T02:09:57.884Z,6.34
2019-04-01T02:10:57.863Z,6.31
2019-04-01T02:11:57.848Z,6.25
2019-04-01T02:12:57.818Z,6.30
2019-04-01T02:13:57.801Z,6.31
2019-04-01T02:14:57.774Z,6.25
2019-04-01T02:15:57.751Z,6.28
2019-04-01T02:16:57.731Z,6.24
2019-04-01T02:17:57.711Z,6.25
2019-04-01T02:18:57.686Z,6.24
2019-04-01T02:19:57.668Z,6.25
2019-04-01T02:20:57.642Z,6.21
2019-04-01T02:21:57.620Z,6.21
2019-04-01T02:22:57.601Z,6.21
2019-04-01T02:23:57.579Z,6.09
2019-04-01T02:24:57.557Z,5.98
2019-04-01T02:25:57.545Z,6.03
2019-04-01T02:26:57.516Z,6.05
2019-04-01T02:27:57.490Z,6.08
2019-04-01T02:28:57.476Z,6.05
2019-04-01T02:29:57.446Z,6.05
2019-04-01T02:30:57.422Z,6.15
2019-04-01T02:31:57.403Z,6.18
2019-04-01T02:32:57.379Z,6.15
2019-04-01T02:33:57.358Z,6.16
2019-04-01T02:34:57.342Z,6.15
2019-04-01T02:35:57.313Z,6.15
2019-04-01T02:36:57.295Z,6.15
2019-04-01T02:37:57.270Z,6.21
2019-04-01T02:38:57.250Z,6.06
2019-04-01T02:39:57.224Z,6.06
2019-04-01T02:40:57.216Z,6.06
2019-04-01T02:41:57.183Z,6.09
2019-04-01T02:42:57.172Z,6.06
2019-04-01T02:43:57.139Z,5.97
2019-04-01T02:44:57.118Z,5.94
2019-04-01T02:45:57.094Z,5.94
2019-04-01T02:46:57.072Z,5.95
2019-04-01T02:47:57.054Z,5.98
2019-04-01T02:48:57.028Z,5.98
2019-04-01T02:49:57.012Z,5.88
2019-04-01T02:50:56.985Z,5.95
2019-04-01T02:51:56.959Z,5.91
2019-04-01T02:52:56.947Z,5.94
2019-04-01T02:53:56.929Z,5.94
2019-04-01T02:54:56.897Z,5.98
2019-04-01T02:55:56.881Z,5.97
2019-04-01T02:56:56.854Z,6.03
2019-04-01T02:57:56.844Z,6.00
2019-04-01T02:58:56.807Z,6.06
2019-04-01T02:59:56.807Z,5.90
2019-04-01T03:00:56.882Z,5.94
2019-04-01T03:01:56.761Z,5.91
2019-04-01T03:02:56.721Z,5.97
2019-04-01T03:03:56.735Z,5.82
2019-04-01T03:04:56.682Z,5.76
2019-04-01T03:05:56.663Z,5.76
2019-04-01T03:06:56.647Z,5.75
2019-04-01T03:07:56.606Z,5.69
2019-04-01T03:08:56.590Z,5.72
2019-04-01T03:09:56.573Z,5.77
2019-04-01T03:10:56.545Z,5.75
2019-04-01T03:11:56.544Z,5.75
2019-04-01T03:12:56.498Z,5.73
2019-04-01T03:13:56.474Z,5.66
2019-04-01T03:14:56.453Z,5.73
2019-04-01T03:15:56.432Z,5.76
2019-04-01T03:16:56.409Z,5.79
2019-04-01T03:17:56.386Z,5.80
2019-04-01T03:18:56.366Z,5.75
2019-04-01T03:19:56.344Z,5.75
2019-04-01T03:20:56.320Z,5.79
2019-04-01T03:21:56.293Z,5.73
2019-04-01T03:22:56.277Z,5.87
2019-04-01T03:23:56.250Z,5.80
2019-04-01T03:24:56.229Z,5.76
2019-04-01T03:25:56.206Z,5.77
2019-04-01T03:26:56.191Z,5.75
2019-04-01T03:27:56.178Z,5.77
2019-04-01T03:28:56.160Z,5.65
2019-04-01T03:29:56.123Z,5.79
2019-04-01T03:30:56.100Z,5.76
2019-04-01T03:31:56.081Z,5.70
2019-04-01T03:32:56.051Z,5.72
2019-04-01T03:33:56.202Z,5.76
2019-04-01T03:34:56.044Z,5.73
2019-04-01T03:35:55.993Z,5.73
2019-04-01T03:36:55.963Z,5.69
2019-04-01T03:37:55.941Z,5.72
2019-04-01T03:38:55.920Z,5.73
2019-04-01T03:39:55.893Z,5.69
2019-04-01T03:40:55.876Z,5.70
2019-04-01T03:41:55.857Z,5.70
2019-04-01T03:42:55.848Z,5.75
2019-04-01T03:43:55.806Z,5.69
2019-04-01T03:44:55.788Z,5.69
2019-04-01T03:45:55.763Z,5.72
2019-04-01T03:46:55.740Z,5.75
2019-04-01T03:47:55.719Z,5.61
2019-04-01T03:48:55.711Z,5.69
2019-04-01T03:49:55.674Z,5.58
2019-04-01T03:50:55.654Z,5.62
2019-04-01T03:51:55.652Z,5.58
2019-04-01T03:52:55.607Z,5.61
2019-04-01T03:53:55.591Z,5.57
2019-04-01T03:54:55.563Z,5.57
2019-04-01T03:55:55.541Z,5.61
2019-04-01T03:56:55.629Z,5.58
2019-04-01T03:57:55.496Z,5.61
2019-04-01T03:58:55.483Z,5.59
2019-04-01T03:59:55.454Z,5.57
2019-04-01T04:00:55.429Z,5.54
2019-04-01T04:01:55.409Z,5.48
2019-04-01T04:02:55.386Z,5.52
2019-04-01T04:03:55.360Z,5.57
2019-04-01T04:04:55.337Z,5.54
2019-04-01T04:05:55.318Z,5.51
2019-04-01T04:06:55.291Z,5.43
2019-04-01T04:07:55.279Z,5.47
2019-04-01T04:08:55.259Z,5.51
2019-04-01T04:09:55.236Z,5.44
2019-04-01T04:10:55.218Z,5.41
2019-04-01T04:11:55.191Z,5.36
2019-04-01T04:12:55.160Z,5.27
2019-04-01T04:13:55.137Z,5.36
2019-04-01T04:14:55.124Z,5.33
2019-04-01T04:15:55.094Z,5.34
2019-04-01T04:16:55.075Z,5.34
2019-04-01T04:17:55.052Z,5.43
2019-04-01T04:18:55.025Z,5.47
2019-04-01T04:19:55.016Z,5.44
2019-04-01T04:20:54.980Z,5.43
2019-04-01T04:21:54.973Z,5.44
2019-04-01T04:22:54.935Z,5.40
2019-04-01T04:23:54.913Z,5.48
2019-04-01T04:24:54.891Z,5.51
2019-04-01T04:25:54.876Z,5.50
2019-04-01T04:26:54.848Z,5.43
2019-04-01T04:27:54.826Z,5.48
2019-04-01T04:28:54.806Z,5.48
2019-04-01T04:29:54.779Z,5.48
2019-04-01T04:30:54.774Z,5.48
2019-04-01T04:31:54.740Z,5.41
2019-04-01T04:32:54.718Z,5.44
2019-04-01T04:33:54.691Z,5.41
2019-04-01T04:34:57.271Z,5.39
2019-04-01T04:35:54.645Z,5.51
2019-04-01T04:36:54.625Z,5.48
2019-04-01T04:37:54.610Z,5.39
2019-04-01T04:38:54.579Z,5.44
2019-04-01T04:39:54.559Z,5.44
2019-04-01T04:40:54.537Z,5.47
2019-04-01T04:41:54.513Z,5.50
2019-04-01T04:42:54.498Z,5.48
2019-04-01T04:43:54.466Z,5.39
2019-04-01T04:44:54.445Z,5.43
2019-04-01T04:45:54.422Z,5.37
2019-04-01T04:46:54.412Z,5.33
2019-04-01T04:47:54.386Z,5.37
2019-04-01T04:48:54.363Z,5.22
2019-04-01T04:49:54.329Z,5.29
2019-04-01T04:50:54.310Z,5.22
2019-04-01T04:51:54.290Z,5.22
2019-04-01T04:52:54.267Z,5.18
2019-04-01T04:53:54.242Z,5.25
2019-04-01T04:54:54.219Z,5.21
2019-04-01T04:55:54.196Z,5.18
2019-04-01T04:56:54.177Z,5.16
2019-04-01T04:57:54.148Z,5.11
2019-04-01T04:58:54.137Z,5.15
2019-04-01T04:59:54.107Z,5.15
2019-04-01T05:00:54.094Z,5.11
2019-04-01T05:01:54.060Z,5.21
2019-04-01T05:02:54.039Z,5.11
2019-04-01T05:03:54.019Z,5.01
2019-04-01T05:04:53.995Z,5.07
2019-04-01T05:05:53.969Z,5.03
2019-04-01T05:06:53.953Z,4.97
2019-04-01T05:07:53.926Z,4.98
2019-04-01T05:08:53.913Z,5.04
2019-04-01T05:09:53.879Z,4.93
2019-04-01T05:10:53.866Z,5.01
2019-04-01T05:11:53.837Z,4.97
2019-04-01T05:12:53.819Z,4.94
2019-04-01T05:13:53.795Z,5.04
2019-04-01T05:14:53.773Z,4.98
2019-04-01T05:15:53.745Z,5.01
2019-04-01T05:16:53.728Z,5.00
2019-04-01T05:17:53.703Z,5.01
2019-04-01T05:18:53.679Z,5.03
2019-04-01T05:19:53.657Z,4.98
2019-04-01T05:20:53.632Z,5.01
2019-04-01T05:21:53.610Z,5.01
2019-04-01T05:22:53.591Z,4.96
2019-04-01T05:23:53.569Z,4.97
2019-04-01T05:24:53.544Z,5.03
2019-04-01T05:25:53.521Z,5.00
2019-04-01T05:26:53.504Z,5.11
2019-04-01T05:27:53.477Z,5.11
2019-04-01T05:28:53.454Z,5.12
2019-04-01T05:29:53.435Z,5.18
2019-04-01T05:30:53.413Z,5.09
2019-04-01T05:31:53.391Z,5.22
2019-04-01T05:32:53.371Z,5.14
2019-04-01T05:33:55.654Z,5.15
2019-04-01T05:34:53.323Z,5.22
2019-04-01T05:35:53.300Z,5.22
2019-04-01T05:36:53.280Z,5.29
2019-04-01T05:37:53.257Z,5.22
2019-04-01T05:38:53.230Z,5.21
2019-04-01T05:39:53.215Z,5.22
2019-04-01T05:40:53.187Z,5.32
2019-04-01T05:41:53.166Z,5.37
2019-04-01T05:42:53.144Z,5.34
2019-04-01T05:43:53.120Z,5.39
2019-04-01T05:44:53.098Z,5.36
2019-04-01T05:45:53.076Z,5.34
2019-04-01T05:46:53.058Z,5.37
2019-04-01T05:47:53.037Z,5.50
2019-04-01T05:48:53.012Z,5.50
2019-04-01T05:49:52.983Z,5.50
2019-04-01T05:50:52.958Z,5.47
2019-04-01T05:51:52.943Z,5.48
2019-04-01T05:52:52.914Z,5.41
2019-04-01T05:53:52.895Z,5.47
2019-04-01T05:54:52.871Z,5.40
2019-04-01T05:55:52.849Z,5.43
2019-04-01T05:56:52.838Z,5.43
2019-04-01T05:57:52.806Z,5.44
2019-04-01T05:58:52.785Z,5.44
2019-04-01T05:59:52.767Z,5.44
2019-04-01T06:00:52.738Z,5.50
2019-04-01T06:01:52.718Z,5.57
2019-04-01T06:02:52.693Z,5.55
2019-04-01T06:03:52.676Z,5.62
2019-04-01T06:04:52.655Z,5.57
2019-04-01T06:05:52.627Z,5.59
2019-04-01T06:06:52.605Z,5.59
2019-04-01T06:07:52.581Z,5.61
2019-04-01T06:08:52.562Z,5.62
2019-04-01T06:09:52.538Z,5.72
2019-04-01T06:10:52.516Z,5.70
2019-04-01T06:11:52.501Z,5.69
2019-04-01T06:12:52.482Z,5.72
2019-04-01T06:13:52.462Z,5.77
2019-04-01T06:14:52.429Z,5.79
2019-04-01T06:15:52.410Z,5.84
2019-04-01T06:16:52.387Z,5.80
2019-04-01T06:17:52.370Z,5.77
2019-04-01T06:18:52.350Z,5.87
2019-04-01T06:19:52.320Z,5.82
2019-04-01T06:20:52.298Z,5.91
2019-04-01T06:21:52.279Z,5.85
2019-04-01T06:22:52.264Z,5.97
2019-04-01T06:23:52.236Z,5.93
2019-04-01T06:24:52.210Z,5.85
2019-04-01T06:25:52.189Z,5.93
2019-04-01T06:26:52.250Z,6.00
2019-04-01T06:27:52.146Z,6.02
2019-04-01T06:28:52.125Z,6.00
2019-04-01T06:29:52.107Z,5.98
2019-04-01T06:30:52.079Z,6.18
2019-04-01T06:31:52.087Z,6.15
2019-04-01T06:32:52.041Z,6.16
2019-04-01T06:33:52.018Z,6.16
2019-04-01T06:34:52.948Z,6.13
2019-04-01T06:35:51.971Z,6.24
2019-04-01T06:36:51.949Z,6.28
2019-04-01T06:37:51.934Z,6.34
2019-04-01T06:38:51.907Z,6.40
2019-04-01T06:39:51.884Z,6.45
2019-04-01T06:40:51.869Z,6.53
2019-04-01T06:41:51.844Z,6.65
2019-04-01T06:42:51.822Z,6.73
2019-04-01T06:43:51.800Z,6.67
2019-04-01T06:44:51.781Z,6.79
2019-04-01T06:45:51.757Z,6.82
2019-04-01T06:46:51.737Z,6.85
2019-04-01T06:47:51.722Z,6.67
2019-04-01T06:48:51.693Z,6.78
2019-04-01T06:49:51.671Z,6.78
2019-04-01T06:50:51.655Z,6.83
2019-04-01T06:51:51.633Z,6.81
2019-04-01T06:52:51.641Z,6.97
2019-04-01T06:53:51.590Z,7.01
2019-04-01T06:54:51.566Z,7.04
2019-04-01T06:55:51.545Z,7.16
2019-04-01T06:56:51.523Z,7.15
2019-04-01T06:57:51.501Z,7.16
2019-04-01T06:58:51.480Z,7.22
2019-04-01T06:59:51.462Z,7.29
2019-04-01T07:00:51.442Z,7.36
2019-04-01T07:01:51.419Z,7.50
2019-04-01T07:02:51.400Z,7.68
2019-04-01T07:03:51.377Z,7.80
2019-04-01T07:04:51.360Z,8.12
2019-04-01T07:05:51.339Z,8.39
2019-04-01T07:06:51.320Z,8.37
2019-04-01T07:07:51.305Z,8.88
2019-04-01T07:08:51.291Z,9.32
2019-04-01T07:09:51.268Z,9.66
2019-04-01T07:10:51.252Z,10.09
2019-04-01T07:11:51.243Z,10.06
2019-04-01T07:12:51.223Z,10.52
2019-04-01T07:13:51.207Z,11.11
2019-04-01T07:14:51.196Z,11.41
2019-04-01T07:15:51.178Z,11.76
2019-04-01T07:16:51.170Z,11.97
2019-04-01T07:17:51.162Z,12.61
2019-04-01T07:18:51.146Z,12.69
2019-04-01T07:19:51.131Z,12.72
2019-04-01T07:20:51.122Z,12.79
2019-04-01T07:21:54.333Z,13.01
2019-04-01T07:22:51.101Z,12.98
2019-04-01T07:23:51.087Z,13.16
2019-04-01T07:24:51.081Z,13.65
2019-04-01T07:25:51.067Z,13.40
2019-04-01T07:26:51.064Z,13.73
2019-04-01T07:27:51.049Z,13.93
2019-04-01T07:28:51.049Z,13.61
2019-04-01T07:29:51.032Z,13.97
2019-04-01T07:30:51.032Z,13.82
2019-04-01T07:31:51.018Z,14.11
2019-04-01T07:32:51.013Z,14.38
2019-04-01T07:33:51.010Z,14.38
2019-04-01T07:34:50.996Z,14.70
2019-04-01T07:35:50.999Z,14.77
2019-04-01T07:36:50.995Z,14.77
2019-04-01T07:37:50.974Z,15.47
2019-04-01T07:38:50.974Z,15.08
2019-04-01T07:39:50.969Z,15.66
2019-04-01T07:40:50.959Z,15.62
2019-04-01T07:41:51.044Z,14.90
2019-04-01T07:42:50.945Z,15.33
2019-04-01T07:43:50.939Z,14.85
2019-04-01T07:44:50.939Z,14.95
2019-04-01T07:45:50.930Z,15.22
2019-04-01T07:46:50.927Z,15.95
2019-04-01T07:47:51.794Z,16.33
2019-04-01T07:48:50.916Z,17.35
2019-04-01T07:49:50.982Z,17.90
2019-04-01T07:50:50.905Z,17.37
2019-04-01T07:51:50.904Z,17.50
2019-04-01T07:52:50.902Z,17.24
2019-04-01T07:53:50.900Z,17.37
2019-04-01T07:54:50.885Z,17.31
2019-04-01T07:55:50.893Z,17.91
2019-04-01T07:56:50.880Z,18.08
2019-04-01T07:57:50.881Z,18.89
2019-04-01T07:58:50.871Z,19.50
2019-04-01T07:59:50.871Z,19.47
2019-04-01T08:00:50.863Z,18.93
2019-04-01T08:01:52.830Z,18.63
2019-04-01T08:02:50.859Z,18.11
2019-04-01T08:03:50.867Z,18.11
2019-04-01T08:04:50.859Z,17.90
2019-04-01T08:05:50.850Z,17.53
2019-04-01T08:06:50.847Z,18.08
2019-04-01T08:07:50.843Z,17.68
2019-04-01T08:08:50.846Z,17.86
2019-04-01T08:09:50.841Z,18.54
2019-04-01T08:10:50.840Z,18.74
2019-04-01T08:11:50.829Z,19.12
2019-04-01T08:12:50.834Z,20.15
2019-04-01T08:13:50.826Z,20.18
2019-04-01T08:14:50.831Z,19.67
2019-04-01T08:15:50.831Z,18.02
2019-04-01T08:16:50.820Z,18.05
2019-04-01T08:17:50.819Z,18.27
2019-04-01T08:18:50.820Z,18.88
2019-04-01T08:19:50.821Z,19.67
2019-04-01T08:20:50.820Z,20.18
2019-04-01T08:21:52.490Z,19.63
2019-04-01T08:22:50.808Z,19.77
2019-04-01T08:23:50.812Z,18.94
2019-04-01T08:24:50.813Z,18.89
2019-04-01T08:25:50.803Z,19.37
2019-04-01T08:26:50.810Z,18.81
2019-04-01T08:27:50.800Z,18.88
2019-04-01T08:28:50.802Z,18.89
2019-04-01T08:29:50.794Z,18.97
2019-04-01T08:30:50.790Z,19.19
2019-04-01T08:31:50.788Z,19.64
2019-04-01T08:32:50.786Z,20.15
2019-04-01T08:33:50.784Z,19.59
2019-04-01T08:34:50.783Z,19.24
2019-04-01T08:35:50.783Z,19.50
2019-04-01T08:36:50.776Z,19.94
2019-04-01T08:37:50.782Z,20.73
2019-04-01T08:38:50.770Z,21.11
2019-04-01T08:39:50.770Z,19.79
2019-04-01T08:40:50.769Z,19.99
2019-04-01T08:41:50.767Z,19.53
2019-04-01T08:42:50.768Z,18.71
2019-04-01T08:43:50.765Z,18.71
2019-04-01T08:44:50.760Z,19.67
2019-04-01T08:45:50.759Z,20.27
2019-04-01T08:46:50.757Z,20.73
2019-04-01T08:47:50.758Z,20.98
2019-04-01T08:48:50.754Z,20.73
2019-04-01T08:49:50.757Z,21.01
2019-04-01T08:50:50.760Z,20.92
2019-04-01T08:51:50.755Z,21.14
2019-04-01T08:52:50.750Z,19.01
2019-04-01T08:53:50.744Z,19.68
2019-04-01T08:54:52.378Z,20.11
2019-04-01T08:55:50.745Z,20.11
2019-04-01T08:56:50.738Z,18.46
2019-04-01T08:57:50.736Z,19.38
2019-04-01T08:58:50.738Z,20.25
2019-04-01T08:59:50.739Z,21.18
2019-04-01T09:00:50.740Z,20.74
2019-04-01T09:01:50.725Z,21.32
2019-04-01T09:02:50.725Z,21.67
2019-04-01T09:03:50.728Z,22.04
2019-04-01T09:04:50.723Z,22.11
2019-04-01T09:05:50.818Z,22.49
2019-04-01T09:06:50.713Z,21.35
2019-04-01T09:07:50.707Z,20.61
2019-04-01T09:08:50.713Z,19.52
2019-04-01T09:09:50.709Z,18.81
2019-04-01T09:10:50.707Z,18.21
2019-04-01T09:11:50.696Z,18.78
2019-04-01T09:12:50.772Z,19.54
2019-04-01T09:13:50.694Z,19.90
2019-04-01T09:14:50.684Z,19.08
2019-04-01T09:15:50.682Z,19.52
2019-04-01T09:16:50.689Z,20.48
2019-04-01T09:17:50.672Z,20.23
2019-04-01T09:18:50.671Z,20.33
2019-04-01T09:19:50.667Z,21.23
2019-04-01T09:20:50.663Z,20.97
2019-04-01T09:21:50.657Z,21.01
2019-04-01T09:22:50.649Z,20.33
2019-04-01T09:23:52.299Z,20.73
2019-04-01T09:24:50.639Z,20.23
2019-04-01T09:25:50.633Z,21.04
2019-04-01T09:26:50.623Z,21.80
2019-04-01T09:27:50.616Z,21.59
2019-04-01T09:28:50.617Z,22.49
2019-04-01T09:29:50.605Z,22.61
2019-04-01T09:30:50.601Z,22.15
2019-04-01T09:31:50.594Z,22.62
2019-04-01T09:32:50.588Z,22.49
2019-04-01T09:33:50.588Z,22.51
2019-04-01T09:34:50.579Z,21.88
2019-04-01T09:35:50.569Z,21.84
2019-04-01T09:36:50.562Z,22.03
2019-04-01T09:37:50.552Z,22.66
2019-04-01T09:38:50.557Z,21.94
2019-04-01T09:39:50.550Z,22.61
2019-04-01T09:40:50.540Z,22.64
2019-04-01T09:41:50.581Z,22.12
2019-04-01T09:42:50.520Z,22.80
2019-04-01T09:43:50.513Z,23.17
2019-04-01T09:44:50.508Z,23.34
2019-04-01T09:45:50.497Z,22.96
2019-04-01T09:46:50.488Z,23.26
2019-04-01T09:47:50.479Z,23.34
2019-04-01T09:48:50.479Z,22.56
2019-04-01T09:49:50.482Z,22.38
2019-04-01T09:50:50.471Z,21.03
2019-04-01T09:51:50.454Z,20.95
2019-04-01T09:52:50.446Z,20.33
2019-04-01T09:53:50.432Z,20.53
2019-04-01T09:54:50.425Z,20.50
2019-04-01T09:55:50.418Z,20.79
2019-04-01T09:56:50.407Z,20.70
2019-04-01T09:57:50.398Z,20.89
2019-04-01T09:58:50.390Z,20.58
2019-04-01T09:59:50.381Z,20.37
2019-04-01T10:00:53.272Z,20.74
2019-04-01T10:01:50.359Z,19.44
2019-04-01T10:02:50.363Z,19.47
2019-04-01T10:03:50.343Z,19.96
2019-04-01T10:04:50.333Z,19.52
2019-04-01T10:05:50.323Z,19.93
2019-04-01T10:06:50.314Z,19.50
2019-04-01T10:07:50.483Z,19.90
2019-04-01T10:08:50.293Z,20.26
2019-04-01T10:09:50.283Z,19.60
2019-04-01T10:10:50.272Z,18.96
2019-04-01T10:11:50.264Z,19.01
2019-04-01T10:12:50.256Z,19.50
2019-04-01T10:13:50.244Z,19.78
2019-04-01T10:14:50.242Z,19.39
2019-04-01T10:15:50.219Z,19.53
2019-04-01T10:16:50.208Z,19.27
2019-04-01T10:17:50.203Z,19.01
2019-04-01T10:18:50.189Z,19.13
2019-04-01T10:19:50.177Z,18.88
2019-04-01T10:20:50.174Z,18.67
2019-04-01T10:21:50.153Z,18.43
2019-04-01T10:22:50.141Z,18.52
2019-04-01T10:23:50.133Z,18.56
2019-04-01T10:24:50.124Z,17.83
2019-04-01T10:25:51.441Z,17.66
2019-04-01T10:26:50.113Z,17.79
2019-04-01T10:27:50.094Z,17.63
2019-04-01T10:28:50.079Z,17.62
2019-04-01T10:29:50.067Z,17.45
2019-04-01T10:30:50.069Z,17.39
2019-04-01T10:31:50.044Z,17.49
2019-04-01T10:32:50.034Z,17.52
2019-04-01T10:33:50.024Z,18.21
2019-04-01T10:34:50.027Z,17.87
2019-04-01T10:35:50.001Z,17.37
2019-04-01T10:36:50.005Z,17.81
2019-04-01T10:37:49.976Z,17.53
2019-04-01T10:38:49.967Z,17.65
2019-04-01T10:39:49.963Z,18.20
2019-04-01T10:40:49.945Z,18.75
2019-04-01T10:41:49.931Z,18.89
2019-04-01T10:42:49.926Z,19.38
2019-04-01T10:43:49.909Z,19.62
2019-04-01T10:44:49.897Z,19.86
2019-04-01T10:45:49.884Z,20.19
2019-04-01T10:46:49.942Z,20.27
2019-04-01T10:47:49.898Z,20.25
2019-04-01T10:48:49.907Z,20.18
2019-04-01T10:49:49.906Z,20.08
2019-04-01T10:50:49.881Z,20.30
2019-04-01T10:51:49.818Z,19.79
2019-04-01T10:52:49.825Z,19.24
2019-04-01T10:53:49.881Z,18.81
2019-04-01T10:54:49.786Z,19.00
2019-04-01T10:55:49.810Z,19.01
2019-04-01T10:56:49.777Z,18.48
2019-04-01T10:57:53.574Z,18.71
2019-04-01T10:58:49.768Z,18.81
2019-04-01T10:59:49.795Z,19.27
2019-04-01T11:00:49.802Z,19.52
2019-04-01T11:01:49.723Z,19.54
2019-04-01T11:02:50.368Z,19.74
2019-04-01T11:03:49.687Z,20.08
2019-04-01T11:04:49.688Z,19.90
2019-04-01T11:05:49.735Z,19.30
2019-04-01T11:06:49.739Z,19.39
2019-04-01T11:07:49.699Z,19.13
2019-04-01T11:08:49.662Z,19.37
2019-04-01T11:09:49.613Z,19.63
2019-04-01T11:10:49.598Z,19.75
2019-04-01T11:11:49.591Z,19.59
2019-04-01T11:12:49.577Z,19.27
2019-04-01T11:13:51.720Z,19.20
2019-04-01T11:14:49.556Z,19.04
2019-04-01T11:15:49.569Z,18.88
2019-04-01T11:16:49.530Z,18.48
2019-04-01T11:17:52.269Z,18.49
2019-04-01T11:18:49.515Z,18.79
2019-04-01T11:19:49.501Z,18.74
2019-04-01T11:20:49.483Z,19.17
2019-04-01T11:21:49.480Z,19.31
2019-04-01T11:22:49.468Z,19.52
2019-04-01T11:23:49.461Z,19.77
2019-04-01T11:24:49.440Z,19.62
2019-04-01T11:25:49.423Z,19.75
2019-04-01T11:26:49.418Z,19.27
2019-04-01T11:27:49.418Z,18.60
2019-04-01T11:28:49.394Z,18.78
2019-04-01T11:29:49.375Z,18.81
2019-04-01T11:30:49.376Z,18.74
2019-04-01T11:31:49.381Z,18.76
2019-04-01T11:32:49.386Z,18.81
2019-04-01T11:33:49.351Z,19.24
2019-04-01T11:34:49.359Z,19.13
2019-04-01T11:35:49.315Z,18.97
2019-04-01T11:36:49.431Z,18.68
2019-04-01T11:37:49.295Z,18.60
2019-04-01T11:38:49.276Z,18.58
2019-04-01T11:39:49.315Z,18.48
2019-04-01T11:40:49.293Z,18.49
2019-04-01T11:41:49.254Z,18.21
2019-04-01T11:42:49.216Z,17.53
2019-04-01T11:43:49.232Z,16.99
2019-04-01T11:44:49.232Z,17.04
2019-04-01T11:45:49.222Z,17.28
2019-04-01T11:46:49.191Z,17.46
2019-04-01T11:47:49.199Z,17.66
2019-04-01T11:48:49.147Z,18.17
2019-04-01T11:49:49.165Z,18.15
2019-04-01T11:50:49.135Z,18.63
2019-04-01T11:51:49.153Z,19.12
2019-04-01T11:52:49.112Z,19.26
2019-04-01T11:53:49.080Z,19.30
2019-04-01T11:54:49.075Z,19.32
2019-04-01T11:55:49.059Z,19.56
2019-04-01T11:56:49.053Z,19.62
2019-04-01T11:57:49.033Z,19.54
2019-04-01T11:58:49.018Z,18.85
2019-04-01T11:59:49.007Z,18.66
2019-04-01T12:00:49.010Z,18.58
2019-04-01T12:01:48.983Z,19.00
2019-04-01T12:02:48.967Z,19.30
2019-04-01T12:03:48.960Z,19.53
2019-04-01T12:04:48.946Z,19.77
2019-04-01T12:05:48.936Z,19.68
2019-04-01T12:06:48.920Z,19.81
2019-04-01T12:07:48.916Z,20.11
2019-04-01T12:08:48.895Z,20.37
2019-04-01T12:09:52.119Z,20.68
2019-04-01T12:10:48.884Z,20.46
2019-04-01T12:11:48.858Z,20.44
2019-04-01T12:12:48.852Z,20.26
2019-04-01T12:13:48.844Z,20.65
2019-04-01T12:14:48.825Z,20.86
2019-04-01T12:15:48.810Z,20.73
2019-04-01T12:16:48.798Z,20.74
2019-04-01T12:17:48.793Z,20.70
2019-04-01T12:18:48.776Z,20.74
2019-04-01T12:19:48.778Z,20.60
2019-04-01T12:20:48.756Z,20.67
2019-04-01T12:21:48.740Z,20.86
2019-04-01T12:22:48.734Z,20.09
2019-04-01T12:23:48.715Z,19.89
2019-04-01T12:24:48.707Z,19.84
2019-04-01T12:25:48.693Z,20.05
2019-04-01T12:26:48.694Z,20.17
2019-04-01T12:27:48.669Z,20.25
2019-04-01T12:28:48.657Z,20.08
2019-04-01T12:29:48.651Z,19.75
2019-04-01T12:30:48.639Z,19.59
2019-04-01T12:31:48.627Z,19.67
2019-04-01T12:32:49.611Z,19.67
2019-04-01T12:33:48.602Z,19.63
2019-04-01T12:34:48.589Z,19.37
2019-04-01T12:35:49.070Z,19.47
2019-04-01T12:36:49.235Z,19.49
2019-04-01T12:37:48.553Z,19.35
2019-04-01T12:38:48.549Z,19.54
2019-04-01T12:39:48.534Z,19.37
2019-04-01T12:40:48.524Z,19.22
2019-04-01T12:41:48.504Z,19.07
2019-04-01T12:42:50.821Z,18.74
2019-04-01T12:43:48.486Z,18.86
2019-04-01T12:44:48.468Z,19.37
2019-04-01T12:45:48.460Z,19.13
2019-04-01T12:46:48.447Z,18.67
2019-04-01T12:47:48.440Z,19.05
2019-04-01T12:48:48.433Z,19.01
2019-04-01T12:49:48.413Z,19.44
2019-04-01T12:50:48.397Z,19.45
2019-04-01T12:51:49.770Z,19.67
2019-04-01T12:52:48.382Z,19.79
2019-04-01T12:53:48.358Z,19.04
2019-04-01T12:54:48.351Z,19.04
2019-04-01T12:55:48.346Z,19.07
2019-04-01T12:56:48.339Z,19.04
2019-04-01T12:57:48.803Z,18.94
2019-04-01T12:58:48.305Z,18.89
2019-04-01T12:59:48.287Z,18.76
2019-04-01T13:00:48.281Z,19.12
2019-04-01T13:01:48.795Z,19.32
2019-04-01T13:02:49.421Z,19.49
2019-04-01T13:03:48.882Z,19.64
2019-04-01T13:04:51.259Z,19.53
2019-04-01T13:05:48.213Z,19.56